Time;durP1;ratioP1;P1;durP2;ratioP2;P2;SDS_P1;SDS_P2;PMS_P1;PMS_P2;Temp;Humidity;BMP_temperature;BMP_pressure;BME280_temperature;BME280_humidity;BME280_pressure;Samples;Min_cycle;Max_cycle;Signal;HPM_P1;HPM_P2
2021/08/30 00:01:05;;;;;;;2.97;1.75;;;14.60;70.60;;;;;;4770193;30;20052;-83
2021/08/30 00:03:33;;;;;;;3.28;1.95;;;14.60;70.70;;;;;;4772661;30;20059;-83
2021/08/30 00:06:01;;;;;;;3.33;1.95;;;14.60;70.80;;;;;;4772871;30;20056;-83
2021/08/30 00:08:28;;;;;;;4.40;1.90;;;14.60;70.90;;;;;;4769384;30;20052;-82
2021/08/30 00:10:56;;;;;;;3.53;2.15;;;14.50;71.00;;;;;;4758197;30;20052;-83
2021/08/30 00:13:24;;;;;;;3.67;2.00;;;14.60;71.10;;;;;;4749673;30;20392;-83
2021/08/30 00:15:51;;;;;;;4.28;2.05;;;14.60;71.20;;;;;;4744464;30;20055;-83
2021/08/30 00:18:19;;;;;;;4.93;2.10;;;14.60;71.30;;;;;;4754987;30;20060;-83
2021/08/30 00:20:47;;;;;;;6.53;2.20;;;14.60;71.40;;;;;;4741815;30;20068;-84
2021/08/30 00:23:14;;;;;;;3.92;2.10;;;14.60;71.50;;;;;;4736972;30;20061;-84
2021/08/30 00:25:46;;;;;;;4.93;2.10;;;14.60;71.60;;;;;;4749521;30;20056;-84
2021/08/30 00:28:14;;;;;;;3.55;2.05;;;14.60;71.60;;;;;;4748261;30;20056;-83
2021/08/30 00:30:41;;;;;;;3.50;2.10;;;14.50;71.70;;;;;;4768381;30;20056;-83
2021/08/30 00:33:09;;;;;;;5.18;2.03;;;14.50;71.70;;;;;;4755419;30;20062;-84
2021/08/30 00:35:37;;;;;;;5.38;2.53;;;14.60;71.80;;;;;;4754616;30;20057;-84
2021/08/30 00:38:08;;;;;;;4.93;2.60;;;14.50;71.90;;;;;;4753077;30;20060;-83
2021/08/30 00:40:42;;;;;;;3.40;2.25;;;14.50;72.10;;;;;;4754436;30;20052;-84
2021/08/30 00:43:10;;;;;;;5.55;2.50;;;14.50;72.10;;;;;;4754443;30;20052;-84
2021/08/30 00:45:38;;;;;;;2.90;2.20;;;14.50;72.20;;;;;;4770953;30;20047;-83
2021/08/30 00:48:05;;;;;;;6.57;2.47;;;14.50;72.30;;;;;;4763891;30;20060;-83
2021/08/30 00:50:34;;;;;;;3.17;2.40;;;14.60;72.40;;;;;;4753351;30;20056;-83
2021/08/30 00:53:02;;;;;;;6.00;2.50;;;14.50;72.50;;;;;;4767617;30;20060;-83
2021/08/30 00:55:29;;;;;;;3.17;2.30;;;14.50;72.60;;;;;;4754685;30;20060;-84
2021/08/30 00:57:58;;;;;;;3.40;2.63;;;14.50;72.80;;;;;;4753717;30;20863;-84
2021/08/30 01:00:25;;;;;;;4.15;3.00;;;14.50;72.80;;;;;;4767588;30;20052;-83
2021/08/30 01:02:53;;;;;;;4.55;3.28;;;14.50;72.90;;;;;;4753936;30;20060;-84
2021/08/30 01:05:22;;;;;;;4.95;3.22;;;14.50;72.80;;;;;;4753976;30;20052;-84
2021/08/30 01:08:01;;;;;;;5.13;3.22;;;14.50;72.90;;;;;;4753597;30;20048;-84
2021/08/30 01:10:51;;;;;;;3.92;3.30;;;14.50;72.90;;;;;;4767238;30;20064;-82
2021/08/30 01:13:32;;;;;;;9.25;4.30;;;14.50;72.90;;;;;;4766354;30;20048;-83
2021/08/30 01:16:07;;;;;;;6.55;4.15;;;14.50;72.90;;;;;;4752718;30;20112;-83
2021/08/30 01:18:35;;;;;;;5.50;4.25;;;14.50;72.90;;;;;;4753588;30;20053;-83
2021/08/30 01:21:18;;;;;;;5.05;4.20;;;14.50;73.10;;;;;;4753792;30;20053;-83
2021/08/30 01:23:57;;;;;;;7.15;3.80;;;14.50;73.40;;;;;;4752326;30;20415;-82
2021/08/30 01:26:26;;;;;;;5.80;4.03;;;14.50;73.50;;;;;;4767210;30;20526;-83
2021/08/30 01:29:04;;;;;;;6.28;4.03;;;14.40;73.60;;;;;;4753327;30;20440;-83
2021/08/30 01:31:54;;;;;;;4.95;3.80;;;14.40;73.70;;;;;;4753762;30;20052;-82
2021/08/30 01:34:23;;;;;;;4.68;3.90;;;14.30;74.00;;;;;;4753344;30;20062;-82
2021/08/30 01:36:52;;;;;;;4.05;3.58;;;14.30;73.90;;;;;;4753374;30;20048;-83
2021/08/30 01:39:26;;;;;;;7.25;4.20;;;14.30;74.10;;;;;;4753263;30;20526;-82
2021/08/30 01:41:54;;;;;;;5.70;3.70;;;14.30;74.20;;;;;;4766931;30;20403;-83
2021/08/30 01:44:22;;;;;;;7.63;3.38;;;14.30;74.30;;;;;;4766711;30;20056;-82
2021/08/30 01:46:50;;;;;;;5.80;3.28;;;14.30;74.40;;;;;;4766642;30;20484;-82
2021/08/30 01:49:20;;;;;;;5.15;3.78;;;14.30;74.40;;;;;;4752879;30;20052;-82
2021/08/30 01:51:49;;;;;;;5.47;3.20;;;14.30;74.40;;;;;;4753220;30;20313;-83
2021/08/30 01:54:18;;;;;;;5.28;3.10;;;14.30;74.50;;;;;;4753102;30;20418;-83
2021/08/30 01:56:49;;;;;;;3.97;2.85;;;14.30;74.40;;;;;;4752865;30;20044;-84
2021/08/30 02:02:06;;;;;;;5.53;2.70;;;14.20;74.40;;;;;;4752779;30;20052;-81
2021/08/30 02:04:35;;;;;;;3.72;2.65;;;14.20;74.30;;;;;;4766089;30;20067;-83
2021/08/30 02:07:04;;;;;;;4.95;2.85;;;14.20;74.30;;;;;;4751660;30;20063;-81
2021/08/30 02:09:32;;;;;;;4.53;2.40;;;14.20;74.30;;;;;;4752506;30;20080;-83
2021/08/30 02:12:00;;;;;;;5.60;2.70;;;14.20;74.30;;;;;;4752660;30;20048;-83
2021/08/30 02:14:28;;;;;;;4.07;2.58;;;14.20;74.20;;;;;;4752702;30;20052;-81
2021/08/30 02:17:01;;;;;;;4.40;2.75;;;14.20;74.10;;;;;;4752863;30;20063;-81
2021/08/30 02:19:43;;;;;;;6.88;2.60;;;14.10;74.10;;;;;;4766056;30;20055;-82
2021/08/30 02:22:21;;;;;;;3.85;2.72;;;14.10;74.10;;;;;;4751197;30;20064;-82
2021/08/30 02:24:56;;;;;;;4.10;2.88;;;14.10;74.10;;;;;;4752191;30;20407;-82
2021/08/30 02:27:27;;;;;;;3.80;2.63;;;14.20;74.10;;;;;;4752623;30;20491;-82
2021/08/30 02:30:20;;;;;;;10.38;2.90;;;14.10;74.10;;;;;;4765748;30;20055;-82
2021/08/30 02:32:52;;;;;;;7.40;2.72;;;14.10;74.20;;;;;;4755037;30;20064;-83
2021/08/30 02:35:26;;;;;;;4.20;2.53;;;14.10;74.10;;;;;;4752255;30;20048;-83
2021/08/30 02:37:55;;;;;;;3.70;2.88;;;14.10;74.20;;;;;;4752770;30;20055;-82
2021/08/30 02:40:27;;;;;;;2.92;2.63;;;14.10;74.30;;;;;;4737291;30;20060;-83
2021/08/30 02:43:01;;;;;;;4.82;2.95;;;14.10;74.30;;;;;;4751734;30;20056;-83
2021/08/30 02:45:29;;;;;;;7.72;3.65;;;14.10;74.50;;;;;;4751170;30;20044;-82
2021/08/30 02:47:59;;;;;;;7.35;4.55;;;14.10;74.60;;;;;;4752126;30;20421;-83
2021/08/30 02:50:28;;;;;;;9.70;5.00;;;14.10;74.70;;;;;;4751883;30;20384;-83
2021/08/30 02:52:58;;;;;;;6.88;5.00;;;14.00;74.70;;;;;;4765639;30;20063;-83
2021/08/30 02:55:26;;;;;;;6.70;5.38;;;14.10;74.80;;;;;;4751977;30;20056;-83
2021/08/30 02:57:56;;;;;;;10.35;6.15;;;14.00;74.90;;;;;;4752006;30;20048;-82
2021/08/30 03:00:23;;;;;;;8.35;6.18;;;14.00;74.90;;;;;;4752190;30;20067;-82
2021/08/30 03:02:52;;;;;;;7.38;6.57;;;14.00;74.80;;;;;;4752074;30;20065;-82
2021/08/30 03:05:21;;;;;;;9.63;6.82;;;14.00;74.80;;;;;;4751915;30;20060;-82
2021/08/30 03:07:49;;;;;;;8.80;6.70;;;14.00;74.80;;;;;;4751913;30;20044;-82
2021/08/30 03:10:17;;;;;;;9.20;6.50;;;13.90;74.80;;;;;;4751309;30;20052;-82
2021/08/30 03:12:46;;;;;;;6.63;5.30;;;13.90;74.80;;;;;;4735897;30;20055;-82
2021/08/30 03:15:18;;;;;;;6.18;4.40;;;13.90;75.00;;;;;;4765547;30;20060;-82
2021/08/30 03:17:46;;;;;;;6.60;4.38;;;13.90;75.10;;;;;;4751721;30;20494;-83
2021/08/30 03:20:25;;;;;;;5.88;4.10;;;13.90;75.10;;;;;;4752115;30;20052;-83
2021/08/30 03:22:56;;;;;;;7.90;3.53;;;13.80;75.00;;;;;;4751752;30;20060;-84
2021/08/30 03:25:29;;;;;;;7.13;3.40;;;13.80;74.90;;;;;;4751506;30;20407;-81
2021/08/30 03:27:58;;;;;;;3.85;3.05;;;13.80;74.80;;;;;;4751660;30;20063;-83
2021/08/30 03:30:26;;;;;;;6.45;3.15;;;13.80;74.60;;;;;;4751801;30;20059;-84
2021/08/30 03:32:55;;;;;;;6.00;3.40;;;13.80;74.50;;;;;;4765428;30;20048;-83
2021/08/30 03:35:24;;;;;;;4.20;2.70;;;13.80;74.50;;;;;;4764851;30;20060;-81
2021/08/30 03:37:53;;;;;;;5.65;2.95;;;13.70;74.40;;;;;;4755425;30;20059;-81
2021/08/30 03:40:22;;;;;;;5.72;2.90;;;13.70;74.40;;;;;;4755426;30;20530;-82
2021/08/30 03:42:51;;;;;;;6.35;3.13;;;13.70;74.30;;;;;;4754045;30;20051;-82
2021/08/30 03:45:20;;;;;;;4.65;3.00;;;13.70;74.20;;;;;;4755516;30;20521;-81
2021/08/30 03:47:48;;;;;;;9.90;4.03;;;13.70;74.00;;;;;;4755099;30;20419;-82
2021/08/30 03:50:16;;;;;;;7.45;3.58;;;13.70;74.00;;;;;;4768611;30;20503;-82
2021/08/30 03:52:45;;;;;;;6.82;3.22;;;13.60;73.90;;;;;;4755157;30;20542;-81
2021/08/30 03:55:13;;;;;;;8.35;3.80;;;13.70;73.80;;;;;;4753931;30;20063;-82
2021/08/30 03:57:40;;;;;;;7.10;3.83;;;13.60;73.90;;;;;;4754957;30;20483;-82
2021/08/30 04:00:09;;;;;;;6.93;3.90;;;13.60;74.00;;;;;;4754860;30;20063;-82
2021/08/30 04:02:40;;;;;;;6.13;3.70;;;13.60;74.00;;;;;;4754253;30;20059;-82
2021/08/30 04:05:10;;;;;;;4.75;3.70;;;13.60;74.10;;;;;;4753523;30;20056;-81
2021/08/30 04:07:39;;;;;;;7.38;3.72;;;13.60;74.10;;;;;;4754846;30;20048;-81
2021/08/30 04:10:07;;;;;;;4.20;3.55;;;13.60;74.10;;;;;;4754489;30;20060;-81
2021/08/30 04:12:38;;;;;;;7.32;3.72;;;13.60;74.20;;;;;;4754544;30;20492;-82
2021/08/30 04:15:06;;;;;;;11.45;4.10;;;13.60;74.30;;;;;;4754557;30;20083;-82
2021/08/30 04:17:34;;;;;;;8.90;4.47;;;13.60;74.30;;;;;;4754983;30;20063;-82
2021/08/30 04:20:01;;;;;;;8.27;4.65;;;13.60;74.30;;;;;;4768347;30;20059;-82
2021/08/30 04:22:29;;;;;;;6.78;4.65;;;13.60;74.30;;;;;;4754154;30;20495;-82
2021/08/30 04:24:56;;;;;;;8.05;4.30;;;13.50;74.30;;;;;;4754673;30;20056;-82
2021/08/30 04:27:24;;;;;;;6.93;4.43;;;13.50;74.30;;;;;;4754585;30;20324;-82
2021/08/30 04:29:51;;;;;;;8.02;4.90;;;13.60;74.30;;;;;;4754292;30;20063;-82
2021/08/30 04:32:19;;;;;;;5.13;4.30;;;13.60;74.30;;;;;;4753141;30;20055;-82
2021/08/30 04:34:47;;;;;;;6.50;4.95;;;13.50;74.40;;;;;;4767989;30;20055;-82
2021/08/30 04:37:14;;;;;;;6.20;4.65;;;13.50;74.50;;;;;;4754229;30;20304;-81
2021/08/30 04:39:42;;;;;;;8.05;5.30;;;13.50;74.60;;;;;;4768298;30;20056;-81
2021/08/30 04:42:10;;;;;;;6.70;4.80;;;13.50;74.60;;;;;;4754112;30;20063;-81
2021/08/30 04:44:38;;;;;;;6.40;3.67;;;13.50;74.70;;;;;;4754533;30;20056;-81
2021/08/30 04:47:06;;;;;;;6.90;4.88;;;13.50;74.70;;;;;;4753995;30;20503;-82
2021/08/30 04:49:34;;;;;;;6.10;3.70;;;13.50;74.50;;;;;;4754300;30;20068;-82
2021/08/30 04:52:02;;;;;;;7.70;3.88;;;13.50;74.50;;;;;;4753841;30;20056;-82
2021/08/30 04:54:30;;;;;;;6.28;3.47;;;13.50;74.40;;;;;;4754031;30;20067;-81
2021/08/30 04:56:57;;;;;;;6.60;3.80;;;13.50;74.30;;;;;;4753020;30;20529;-82
2021/08/30 04:59:25;;;;;;;7.38;3.97;;;13.40;74.30;;;;;;4753842;30;20088;-82
2021/08/30 05:01:52;;;;;;;5.15;2.80;;;13.50;74.20;;;;;;4753441;30;20404;-82
2021/08/30 05:04:20;;;;;;;6.75;3.47;;;13.50;74.20;;;;;;4753847;30;20071;-82
2021/08/30 05:06:48;;;;;;;4.85;2.97;;;13.50;74.20;;;;;;4753714;30;20448;-82
2021/08/30 05:09:15;;;;;;;6.78;2.95;;;13.40;74.10;;;;;;4753653;30;20055;-82
2021/08/30 05:11:43;;;;;;;9.82;3.13;;;13.40;74.10;;;;;;4754253;30;20052;-81
2021/08/30 05:14:10;;;;;;;9.60;3.67;;;13.40;74.10;;;;;;4754633;30;20063;-82
2021/08/30 05:16:38;;;;;;;7.93;3.90;;;13.40;74.20;;;;;;4753853;30;20059;-82
2021/08/30 05:19:06;;;;;;;9.48;4.40;;;13.40;74.20;;;;;;4753355;30;20056;-82
2021/08/30 05:21:33;;;;;;;5.55;4.38;;;13.40;74.10;;;;;;4753920;30;20495;-82
2021/08/30 05:24:01;;;;;;;7.95;4.60;;;13.40;74.00;;;;;;4753302;30;20502;-82
2021/08/30 05:26:29;;;;;;;10.20;4.80;;;13.50;74.00;;;;;;4766602;30;20071;-82
2021/08/30 05:28:57;;;;;;;6.13;4.13;;;13.40;74.00;;;;;;4753352;30;20426;-81
2021/08/30 05:31:24;;;;;;;8.73;5.00;;;13.50;74.00;;;;;;4753537;30;20048;-82
2021/08/30 05:33:52;;;;;;;8.30;5.03;;;13.50;73.90;;;;;;4753109;30;20056;-82
2021/08/30 05:36:20;;;;;;;7.05;5.45;;;13.50;73.90;;;;;;4753313;30;20409;-81
2021/08/30 05:38:47;;;;;;;9.45;6.00;;;13.50;73.80;;;;;;4753358;30;20048;-82
2021/08/30 05:41:15;;;;;;;12.45;7.45;;;13.50;73.90;;;;;;4753150;30;20060;-81
2021/08/30 05:43:42;;;;;;;11.20;7.60;;;13.50;74.00;;;;;;4753131;30;20060;-81
2021/08/30 05:46:15;;;;;;;13.23;7.85;;;13.50;73.90;;;;;;4753365;30;20060;-80
2021/08/30 05:48:47;;;;;;;10.02;7.07;;;13.50;73.90;;;;;;4753148;30;20048;-81
2021/08/30 05:51:15;;;;;;;14.15;6.35;;;13.50;73.70;;;;;;4753259;30;20056;-81
2021/08/30 05:53:44;;;;;;;7.32;5.97;;;13.50;73.70;;;;;;4752883;30;20052;-80
2021/08/30 05:56:11;;;;;;;7.05;5.30;;;13.50;73.70;;;;;;4752924;30;20059;-81
2021/08/30 05:58:39;;;;;;;6.22;5.00;;;13.50;73.70;;;;;;4752529;30;20065;-81
2021/08/30 06:01:06;;;;;;;6.47;4.68;;;13.50;73.70;;;;;;4752930;30;20246;-82
2021/08/30 06:03:34;;;;;;;7.80;5.20;;;13.50;73.70;;;;;;4752928;30;20515;-82
2021/08/30 06:06:03;;;;;;;8.07;4.60;;;13.60;73.70;;;;;;4753090;30;20406;-81
2021/08/30 06:08:30;;;;;;;8.60;4.47;;;13.60;73.80;;;;;;4752822;30;20048;-81
2021/08/30 06:11:00;;;;;;;9.43;4.53;;;13.60;73.80;;;;;;4752721;30;20075;-82
2021/08/30 06:13:27;;;;;;;9.52;5.53;;;13.60;73.90;;;;;;4752850;30;20048;-81
2021/08/30 06:15:55;;;;;;;8.90;5.60;;;13.60;73.80;;;;;;4752644;30;20060;-81
2021/08/30 06:18:25;;;;;;;17.05;5.90;;;13.70;73.80;;;;;;4752450;30;20059;-81
2021/08/30 06:20:52;;;;;;;6.80;5.22;;;13.70;73.80;;;;;;4752796;30;20082;-81
2021/08/30 06:23:20;;;;;;;7.63;5.40;;;13.70;73.80;;;;;;4752230;30;20052;-81
2021/08/30 06:25:48;;;;;;;8.23;5.55;;;13.70;73.80;;;;;;4752358;30;20056;-81
2021/08/30 06:28:16;;;;;;;9.30;5.55;;;13.70;73.70;;;;;;4752397;30;20481;-81
2021/08/30 06:30:43;;;;;;;6.88;4.78;;;13.80;73.70;;;;;;4752136;30;20070;-81
2021/08/30 06:33:11;;;;;;;9.55;4.70;;;13.70;73.70;;;;;;4752070;30;20059;-81
2021/08/30 06:35:42;;;;;;;6.60;4.88;;;13.80;73.70;;;;;;4766331;30;20056;-82
2021/08/30 06:38:12;;;;;;;7.55;4.82;;;13.80;73.70;;;;;;4752289;30;20056;-81
2021/08/30 06:40:40;;;;;;;7.10;5.40;;;13.80;73.60;;;;;;4752220;30;20128;-81
2021/08/30 06:43:08;;;;;;;11.60;5.93;;;13.80;73.50;;;;;;4752305;30;20063;-81
2021/08/30 06:45:35;;;;;;;11.00;5.70;;;13.90;73.30;;;;;;4752527;30;20052;-81
2021/08/30 06:48:04;;;;;;;10.23;6.43;;;13.90;73.30;;;;;;4752173;30;20052;-81
2021/08/30 06:50:32;;;;;;;8.85;5.65;;;13.90;73.30;;;;;;4752008;30;20051;-82
2021/08/30 06:52:59;;;;;;;8.88;6.13;;;14.00;73.40;;;;;;4750953;30;20059;-81
2021/08/30 06:55:27;;;;;;;10.02;5.50;;;14.00;73.40;;;;;;4751790;30;20060;-81
2021/08/30 06:57:55;;;;;;;9.45;5.45;;;14.00;73.40;;;;;;4752307;30;20480;-82
2021/08/30 07:00:23;;;;;;;6.45;5.20;;;14.00;73.50;;;;;;4752298;30;20056;-81
2021/08/30 07:02:50;;;;;;;7.63;5.32;;;14.00;73.50;;;;;;4752220;30;20067;-81
2021/08/30 07:05:18;;;;;;;6.97;3.88;;;14.10;73.40;;;;;;4750744;30;20064;-81
2021/08/30 07:07:46;;;;;;;5.60;3.70;;;14.10;73.40;;;;;;4765423;30;20048;-81
2021/08/30 07:10:13;;;;;;;7.95;3.65;;;14.10;73.40;;;;;;4751334;30;20419;-82
2021/08/30 07:12:41;;;;;;;5.82;3.60;;;14.10;73.40;;;;;;4753185;30;20060;-82
2021/08/30 07:15:09;;;;;;;6.15;2.72;;;14.20;73.40;;;;;;4753846;30;20063;-82
2021/08/30 07:17:37;;;;;;;7.88;3.08;;;14.20;73.40;;;;;;4751933;30;20149;-82
2021/08/30 07:20:05;;;;;;;5.75;3.10;;;14.30;73.30;;;;;;4752154;30;20060;-81
2021/08/30 07:22:33;;;;;;;5.55;3.10;;;14.30;73.10;;;;;;4751593;30;20052;-82
2021/08/30 07:25:00;;;;;;;6.00;3.30;;;14.30;73.10;;;;;;4765105;30;20108;-82
2021/08/30 07:27:28;;;;;;;6.20;3.15;;;14.30;73.00;;;;;;4751602;30;20060;-83
2021/08/30 07:29:56;;;;;;;6.65;2.90;;;14.30;72.80;;;;;;4751472;30;20381;-82
2021/08/30 07:32:23;;;;;;;3.25;2.40;;;14.30;72.80;;;;;;4749343;30;20420;-83
2021/08/30 07:34:51;;;;;;;9.02;3.15;;;14.30;72.90;;;;;;4751511;30;20064;-83
2021/08/30 07:37:18;;;;;;;8.43;3.20;;;14.40;72.90;;;;;;4751503;30;20056;-83
2021/08/30 07:39:46;;;;;;;5.80;2.70;;;14.40;72.90;;;;;;4751527;30;20052;-81
2021/08/30 07:42:14;;;;;;;7.32;2.92;;;14.50;72.90;;;;;;4751814;30;20045;-83
2021/08/30 07:44:41;;;;;;;10.68;2.72;;;14.50;72.80;;;;;;4752016;30;20083;-83
2021/08/30 07:47:09;;;;;;;4.88;2.42;;;14.50;72.70;;;;;;4751794;30;20063;-82
2021/08/30 07:49:37;;;;;;;7.90;2.65;;;14.60;72.60;;;;;;4750788;30;20060;-83
2021/08/30 07:52:05;;;;;;;6.05;2.30;;;14.70;72.60;;;;;;4765222;30;20067;-83
2021/08/30 07:54:32;;;;;;;3.35;2.05;;;14.70;72.40;;;;;;4751867;30;20044;-83
2021/08/30 07:57:00;;;;;;;2.92;2.03;;;14.70;72.10;;;;;;4751835;30;20051;-83
2021/08/30 07:59:28;;;;;;;4.00;2.10;;;14.80;72.00;;;;;;4750826;30;20087;-82
2021/08/30 08:01:55;;;;;;;4.97;2.20;;;14.80;71.80;;;;;;4750404;30;20384;-82
2021/08/30 08:04:24;;;;;;;5.13;1.90;;;14.80;71.60;;;;;;4749973;30;20067;-82
2021/08/30 08:06:51;;;;;;;4.78;2.20;;;14.80;71.50;;;;;;4751328;30;20052;-82
2021/08/30 08:09:20;;;;;;;5.88;2.00;;;14.80;71.40;;;;;;4751179;30;20052;-82
2021/08/30 08:11:48;;;;;;;8.18;2.63;;;14.80;71.30;;;;;;4750380;30;20064;-84
2021/08/30 08:14:16;;;;;;;5.55;2.15;;;14.80;71.40;;;;;;4751319;30;20052;-82
2021/08/30 08:16:43;;;;;;;5.45;2.13;;;14.90;71.40;;;;;;4750203;30;20415;-83
2021/08/30 08:19:14;;;;;;;4.10;1.90;;;14.90;71.30;;;;;;4767203;30;20044;-82
2021/08/30 08:21:42;;;;;;;5.70;2.20;;;14.90;71.20;;;;;;4764549;30;20060;-82
2021/08/30 08:24:10;;;;;;;6.03;2.50;;;14.90;71.10;;;;;;4747105;30;20051;-83
2021/08/30 08:26:38;;;;;;;5.07;2.10;;;14.90;71.10;;;;;;4767697;30;20051;-83
2021/08/30 08:29:06;;;;;;;4.93;2.30;;;15.00;71.10;;;;;;4753955;30;20047;-83
2021/08/30 08:31:33;;;;;;;5.57;2.13;;;15.00;71.10;;;;;;4753132;30;20093;-83
2021/08/30 08:34:01;;;;;;;5.90;2.28;;;15.00;71.10;;;;;;4754285;30;20059;-83
2021/08/30 08:36:29;;;;;;;3.33;1.92;;;15.10;71.00;;;;;;4753980;30;20067;-81
2021/08/30 08:38:57;;;;;;;5.93;2.38;;;15.10;70.80;;;;;;4753374;30;20060;-81
2021/08/30 08:41:24;;;;;;;7.93;2.90;;;15.10;70.80;;;;;;4753748;30;20052;-85
2021/08/30 08:43:56;;;;;;;5.78;2.60;;;15.10;70.80;;;;;;4768022;30;20052;-82
2021/08/30 08:46:24;;;;;;;5.93;2.08;;;15.10;70.70;;;;;;4753911;30;20047;-87
2021/08/30 08:49:00;;;;;;;6.05;2.33;;;15.10;70.70;;;;;;4743053;30;20048;-82
2021/08/30 08:51:27;;;;;;;8.07;2.38;;;15.20;70.70;;;;;;4737618;30;20053;-87
2021/08/30 08:53:55;;;;;;;5.57;2.45;;;15.20;70.60;;;;;;4739321;30;20515;-91
2021/08/30 08:56:27;;;;;;;9.35;2.80;;;15.30;70.30;;;;;;4752768;30;20514;-89
2021/08/30 08:58:55;;;;;;;3.53;2.22;;;15.30;70.40;;;;;;4767622;30;20060;-83
2021/08/30 09:01:24;;;;;;;3.97;2.20;;;15.30;70.30;;;;;;4753944;30;20061;-87
2021/08/30 09:03:55;;;;;;;5.22;2.30;;;15.30;70.20;;;;;;4767474;30;20056;-82
2021/08/30 09:06:39;;;;;;;8.98;2.33;;;15.40;69.90;;;;;;4739036;30;20412;-84
2021/08/30 09:09:08;;;;;;;5.75;2.35;;;15.40;69.80;;;;;;4750484;30;20503;-85
2021/08/30 09:11:44;;;;;;;4.70;1.98;;;15.60;69.60;;;;;;4767068;30;20071;-84
2021/08/30 09:14:21;;;;;;;3.78;2.10;;;15.60;69.40;;;;;;4767118;30;20507;-84
2021/08/30 09:17:00;;;;;;;3.13;1.85;;;15.80;69.10;;;;;;4753051;30;20064;-84
2021/08/30 09:19:28;;;;;;;4.45;2.17;;;15.90;68.70;;;;;;4767009;30;20060;-82
2021/08/30 09:21:58;;;;;;;12.07;2.10;;;16.00;68.40;;;;;;4752603;30;20491;-89
2021/08/30 09:24:26;;;;;;;4.70;2.30;;;16.10;68.20;;;;;;4753604;30;20064;-85
2021/08/30 09:27:18;;;;;;;2.83;1.63;;;16.20;67.90;;;;;;4752502;30;20056;-85
2021/08/30 09:29:46;;;;;;;6.03;2.50;;;16.20;67.60;;;;;;4753601;30;20056;-85
2021/08/30 09:32:15;;;;;;;2.40;1.92;;;16.20;67.50;;;;;;4752245;30;20056;-86
2021/08/30 09:34:51;;;;;;;6.05;2.70;;;16.20;67.30;;;;;;4746439;30;20525;-86
2021/08/30 09:37:22;;;;;;;3.72;2.40;;;16.30;67.10;;;;;;4753616;30;20044;-85
2021/08/30 09:39:53;;;;;;;5.88;2.58;;;16.30;67.10;;;;;;4738297;30;20052;-88
2021/08/30 09:42:21;;;;;;;6.22;2.30;;;16.30;66.90;;;;;;4753568;30;20063;-83
2021/08/30 09:44:51;;;;;;;4.05;2.40;;;16.30;66.80;;;;;;4743805;30;20404;-83
2021/08/30 09:47:22;;;;;;;8.50;2.50;;;16.30;66.80;;;;;;4767104;30;20052;-84
2021/08/30 09:49:51;;;;;;;5.18;2.67;;;16.40;66.70;;;;;;4744464;30;20515;-83
2021/08/30 09:52:20;;;;;;;4.70;3.10;;;16.40;66.60;;;;;;4749322;30;20057;-83
2021/08/30 09:54:49;;;;;;;7.80;4.38;;;16.50;66.60;;;;;;4738145;30;20049;-85
2021/08/30 09:57:17;;;;;;;8.18;5.28;;;16.50;66.40;;;;;;4752701;30;20071;-85
2021/08/30 09:59:46;;;;;;;7.63;6.70;;;16.50;66.20;;;;;;4762481;30;20093;-83
2021/08/30 10:02:16;;;;;;;10.48;7.00;;;16.50;65.90;;;;;;4736264;30;20056;-83
2021/08/30 10:04:44;;;;;;;10.13;6.88;;;16.50;65.80;;;;;;4738787;30;20053;-85
2021/08/30 10:07:18;;;;;;;;;;;16.50;65.70;;;;;;4744802;30;20056;-88
2021/08/30 10:09:48;;;;;;;11.02;7.13;;;16.50;65.50;;;;;;4744164;30;20243;-83
2021/08/30 10:12:15;;;;;;;8.25;6.70;;;16.50;65.60;;;;;;4761083;30;20060;-83
2021/08/30 10:14:43;;;;;;;7.22;6.53;;;16.60;65.60;;;;;;4735911;30;20053;-83
2021/08/30 10:17:11;;;;;;;10.43;5.90;;;16.80;65.40;;;;;;4734254;30;20061;-83
2021/08/30 10:19:41;;;;;;;8.52;5.43;;;16.80;65.10;;;;;;4735017;30;20045;-83
2021/08/30 10:22:20;;;;;;;6.60;6.00;;;16.90;64.70;;;;;;4741505;30;20075;-83
2021/08/30 10:24:49;;;;;;;9.95;6.03;;;17.10;64.20;;;;;;4764772;30;20488;-83
2021/08/30 10:27:38;;;;;;;6.95;4.95;;;17.20;64.00;;;;;;4752700;30;20518;-84
2021/08/30 10:30:12;;;;;;;8.23;5.18;;;17.30;63.40;;;;;;4752359;30;20059;-85
2021/08/30 10:32:43;;;;;;;8.00;5.00;;;17.30;63.00;;;;;;4748864;30;20059;-84
2021/08/30 10:35:18;;;;;;;7.13;4.85;;;17.30;63.00;;;;;;4751583;30;20052;-83
2021/08/30 10:38:07;;;;;;;5.90;4.70;;;17.30;62.80;;;;;;4748455;30;20064;-84
2021/08/30 10:40:37;;;;;;;6.60;4.78;;;17.40;62.60;;;;;;4733648;30;20053;-84
2021/08/30 10:43:16;;;;;;;5.80;4.47;;;17.50;62.50;;;;;;4746264;30;20071;-84
2021/08/30 10:45:57;;;;;;;8.40;4.95;;;17.70;62.50;;;;;;4755965;30;20069;-85
2021/08/30 10:48:37;;;;;;;9.10;5.15;;;17.80;62.10;;;;;;4748882;30;20048;-84
2021/08/30 10:51:25;;;;;;;7.13;4.72;;;17.90;62.00;;;;;;4765622;30;20063;-84
2021/08/30 10:54:00;;;;;;;6.90;4.50;;;18.00;61.90;;;;;;4765555;30;20052;-84
2021/08/30 10:56:30;;;;;;;4.78;4.35;;;18.20;61.60;;;;;;4752229;30;20052;-83
2021/08/30 10:59:06;;;;;;;8.65;5.60;;;18.30;61.10;;;;;;4750754;30;20064;-82
2021/08/30 11:01:59;;;;;;;6.32;5.10;;;18.40;60.70;;;;;;4762701;30;20067;-83
2021/08/30 11:04:35;;;;;;;7.72;5.55;;;18.60;60.40;;;;;;4744106;30;20049;-83
2021/08/30 11:07:05;;;;;;;9.05;5.20;;;18.70;60.40;;;;;;4747523;30;20052;-82
2021/08/30 11:09:33;;;;;;;4.95;4.13;;;18.90;59.80;;;;;;4747652;30;20505;-82
2021/08/30 11:12:11;;;;;;;5.38;4.25;;;19.00;58.90;;;;;;4737670;30;20055;-83
2021/08/30 11:14:40;;;;;;;11.25;3.70;;;19.10;58.80;;;;;;4752467;30;20048;-81
2021/08/30 11:17:12;;;;;;;5.63;4.10;;;19.20;58.60;;;;;;4757183;30;20117;-82
2021/08/30 11:19:40;;;;;;;6.90;4.65;;;19.30;58.30;;;;;;4734252;30;20057;-82
2021/08/30 11:22:08;;;;;;;7.20;4.40;;;19.20;57.80;;;;;;4756021;30;20492;-82
2021/08/30 11:24:43;;;;;;;5.47;4.25;;;19.30;57.80;;;;;;4755144;30;20056;-82
2021/08/30 11:27:13;;;;;;;6.03;4.07;;;19.30;57.70;;;;;;4764530;30;20049;-82
2021/08/30 11:29:52;;;;;;;6.43;4.10;;;19.40;57.40;;;;;;4751538;30;20064;-82
2021/08/30 11:32:23;;;;;;;6.20;3.97;;;19.40;57.40;;;;;;4739906;30;20068;-82
2021/08/30 11:34:52;;;;;;;5.35;3.60;;;19.40;57.50;;;;;;4738768;30;20060;-83
2021/08/30 11:37:25;;;;;;;6.15;3.80;;;19.40;57.30;;;;;;4751292;30;20411;-83
2021/08/30 11:39:56;;;;;;;5.05;3.45;;;19.30;57.20;;;;;;4751469;30;20052;-82
2021/08/30 11:42:32;;;;;;;4.60;3.30;;;19.50;57.10;;;;;;4739471;30;20059;-81
2021/08/30 11:45:03;;;;;;;;;;;19.60;57.00;;;;;;4736789;30;20053;-82
2021/08/30 11:47:31;;;;;;;6.07;3.25;;;19.60;56.50;;;;;;4739101;30;19926;-83
2021/08/30 11:50:10;;;;;;;5.22;3.38;;;19.50;56.70;;;;;;4736167;30;20064;-82
2021/08/30 11:52:39;;;;;;;7.05;3.55;;;19.50;56.50;;;;;;4750819;30;20052;-83
2021/08/30 11:55:11;;;;;;;5.47;3.28;;;19.40;56.60;;;;;;4771997;30;20060;-83
2021/08/30 11:57:50;;;;;;;5.00;3.28;;;19.50;56.80;;;;;;4769954;30;20511;-82
2021/08/30 12:00:23;;;;;;;4.70;3.03;;;19.60;56.40;;;;;;4756524;30;20044;-82
2021/08/30 12:02:57;;;;;;;5.35;3.00;;;19.60;56.10;;;;;;4737709;30;20052;-84
2021/08/30 12:05:27;;;;;;;5.45;3.00;;;19.60;56.20;;;;;;4751418;30;20057;-82
2021/08/30 12:07:56;;;;;;;5.45;3.45;;;19.50;55.90;;;;;;4735214;30;20080;-82
2021/08/30 12:10:26;;;;;;;4.50;3.17;;;19.40;55.90;;;;;;4748350;30;20052;-82
2021/08/30 12:15:37;;;;;;;4.85;3.55;;;19.30;56.50;;;;;;4745797;30;20063;-82
2021/08/30 12:18:05;;;;;;;4.78;3.20;;;19.30;56.90;;;;;;4747873;30;20052;-82
2021/08/30 12:20:36;;;;;;;8.32;3.40;;;19.30;57.00;;;;;;4751211;30;20464;-83
2021/08/30 12:23:07;;;;;;;5.50;3.30;;;19.30;57.10;;;;;;4742818;30;20504;-83
2021/08/30 12:25:37;;;;;;;4.93;3.13;;;19.30;57.00;;;;;;4737828;30;20053;-82
2021/08/30 12:28:07;;;;;;;4.70;2.90;;;19.40;56.70;;;;;;4761340;30;20372;-82
2021/08/30 12:30:48;;;;;;;4.30;2.97;;;19.40;56.70;;;;;;4767346;30;20048;-82
2021/08/30 12:33:28;;;;;;;4.90;3.13;;;19.30;57.00;;;;;;4737249;30;20065;-82
2021/08/30 12:35:59;;;;;;;3.95;3.33;;;19.40;57.10;;;;;;4736656;30;20057;-83
2021/08/30 12:38:31;;;;;;;5.43;3.20;;;19.50;57.10;;;;;;4736971;30;20071;-83
2021/08/30 12:41:04;;;;;;;5.65;3.67;;;19.60;56.90;;;;;;4737927;30;20057;-82
2021/08/30 12:43:32;;;;;;;4.38;3.10;;;19.60;57.00;;;;;;4736449;30;20056;-83
2021/08/30 12:46:05;;;;;;;5.63;3.55;;;19.60;57.00;;;;;;4749405;30;20056;-82
2021/08/30 12:48:33;;;;;;;;;;;19.50;57.00;;;;;;4737203;30;20057;-81
2021/08/30 12:51:00;;;;;;;7.28;3.03;;;19.50;56.90;;;;;;4736284;30;19934;-81
2021/08/30 12:53:28;;;;;;;4.03;3.00;;;19.40;57.30;;;;;;4736364;30;20530;-82
2021/08/30 12:55:56;;;;;;;4.68;2.38;;;19.40;57.50;;;;;;4750841;30;20055;-83
2021/08/30 12:58:24;;;;;;;6.25;2.63;;;19.40;57.50;;;;;;4754647;30;20059;-82
2021/08/30 13:00:51;;;;;;;5.40;2.10;;;19.40;57.60;;;;;;4752661;30;20052;-83
2021/08/30 13:03:20;;;;;;;8.50;2.40;;;19.30;57.70;;;;;;4767511;30;20423;-83
2021/08/30 13:05:48;;;;;;;4.65;3.40;;;19.30;57.50;;;;;;4767590;30;20056;-83
2021/08/30 13:08:16;;;;;;;7.53;4.78;;;19.30;57.50;;;;;;4764369;30;20052;-82